createdAt,value
2022-09-03T00:00:49.081Z,26.03
2022-09-03T00:01:49.225Z,26.01
2022-09-03T00:02:49.200Z,26.01
2022-09-03T00:03:49.188Z,26.00
2022-09-03T00:04:49.218Z,26.00
2022-09-03T00:05:49.556Z,25.98
2022-09-03T00:06:49.285Z,26.03
2022-09-03T00:07:49.317Z,26.08
2022-09-03T00:09:49.389Z,26.03
2022-09-03T00:10:49.421Z,25.90
2022-09-03T00:11:49.455Z,25.97
2022-09-03T00:12:49.790Z,25.96
2022-09-03T00:13:49.526Z,25.91
2022-09-03T00:14:49.553Z,26.00
2022-09-03T00:15:49.671Z,26.01
2022-09-03T00:16:49.622Z,25.91
2022-09-03T00:17:49.663Z,25.97
2022-09-03T00:18:49.690Z,25.96
2022-09-03T00:19:50.025Z,25.97
2022-09-03T00:20:49.757Z,25.90
2022-09-03T00:21:49.813Z,25.96
2022-09-03T00:22:49.827Z,25.94
2022-09-03T00:23:49.859Z,25.98
2022-09-03T00:24:49.894Z,25.91
2022-09-03T00:25:49.926Z,25.83
2022-09-03T00:26:50.262Z,25.96
2022-09-03T00:27:49.997Z,25.93
2022-09-03T00:28:50.029Z,25.85
2022-09-03T00:29:50.162Z,25.86
2022-09-03T00:30:50.128Z,25.79
2022-09-03T00:31:50.128Z,25.86
2022-09-03T00:32:50.172Z,25.78
2022-09-03T00:33:50.203Z,25.83
2022-09-03T00:34:50.234Z,25.90
2022-09-03T00:35:50.265Z,25.82
2022-09-03T00:36:50.299Z,25.81
2022-09-03T00:38:50.367Z,25.82
2022-09-03T00:40:50.732Z,25.83
2022-09-03T00:41:50.478Z,25.74
2022-09-03T00:42:50.501Z,25.82
2022-09-03T00:43:50.539Z,25.75
2022-09-03T00:44:50.565Z,25.74
2022-09-03T00:46:50.667Z,25.75
2022-09-03T00:48:50.701Z,25.75
2022-09-03T00:49:50.735Z,25.79
2022-09-03T00:50:50.773Z,25.82
2022-09-03T00:51:50.806Z,25.81
2022-09-03T00:52:50.835Z,25.82
2022-09-03T00:53:50.870Z,25.78
2022-09-03T00:54:51.307Z,25.79
2022-09-03T00:55:50.937Z,25.81
2022-09-03T00:56:50.972Z,25.78
2022-09-03T00:57:51.005Z,25.79
2022-09-03T00:58:51.041Z,25.72
2022-09-03T00:59:51.068Z,25.76
2022-09-03T01:00:51.408Z,25.76
2022-09-03T01:01:51.233Z,25.67
2022-09-03T01:03:51.207Z,25.78
2022-09-03T01:04:51.241Z,25.78
2022-09-03T01:05:51.272Z,25.64
2022-09-03T01:06:51.607Z,25.60
2022-09-03T01:07:51.338Z,25.63
2022-09-03T01:08:51.371Z,25.74
2022-09-03T01:10:51.438Z,25.72
2022-09-03T01:11:51.473Z,25.66
2022-09-03T01:12:51.759Z,25.66
2022-09-03T01:14:51.573Z,25.67
2022-09-03T01:15:51.658Z,25.67
2022-09-03T01:16:51.644Z,25.69
2022-09-03T01:17:51.672Z,25.67
2022-09-03T01:18:51.703Z,25.66
2022-09-03T01:19:52.060Z,25.59
2022-09-03T01:20:51.780Z,25.63
2022-09-03T01:21:51.808Z,25.66
2022-09-03T01:22:51.839Z,25.69
2022-09-03T01:23:51.873Z,25.63
2022-09-03T01:24:51.914Z,25.60
2022-09-03T01:25:51.939Z,25.71
2022-09-03T01:26:52.280Z,25.69
2022-09-03T01:27:52.008Z,25.64
2022-09-03T01:28:52.046Z,25.57
2022-09-03T01:29:52.076Z,25.60
2022-09-03T01:30:52.136Z,25.63
2022-09-03T01:31:52.145Z,25.61
2022-09-03T01:33:52.215Z,25.61
2022-09-03T01:34:52.542Z,25.59
2022-09-03T01:35:52.289Z,25.59
2022-09-03T01:36:52.315Z,25.56
2022-09-03T01:37:52.347Z,25.57
2022-09-03T01:38:52.378Z,25.60
2022-09-03T01:39:52.484Z,25.61
2022-09-03T01:40:52.444Z,25.56
2022-09-03T01:42:52.762Z,25.56
2022-09-03T01:43:52.542Z,25.56
2022-09-03T01:44:52.919Z,25.53
2022-09-03T01:45:52.801Z,25.56
2022-09-03T01:46:52.647Z,25.49
2022-09-03T01:47:52.680Z,25.53
2022-09-03T01:48:53.011Z,25.51
2022-09-03T01:49:52.741Z,25.48
2022-09-03T01:50:52.789Z,25.51
2022-09-03T01:51:52.815Z,25.49
2022-09-03T01:52:52.851Z,25.54
2022-09-03T01:53:52.893Z,25.45
2022-09-03T01:54:52.915Z,25.48
2022-09-03T01:56:53.279Z,25.44
2022-09-03T01:57:53.017Z,25.46
2022-09-03T01:58:53.043Z,25.49
2022-09-03T01:59:53.077Z,25.46
2022-09-03T02:00:53.108Z,25.44
2022-09-03T02:01:55.834Z,25.46
2022-09-03T02:02:53.339Z,25.45
2022-09-03T02:03:53.463Z,25.44
2022-09-03T02:04:53.240Z,25.42
2022-09-03T02:05:53.278Z,25.41
2022-09-03T02:06:53.309Z,25.41
2022-09-03T02:07:53.343Z,25.35
2022-09-03T02:08:53.383Z,25.34
2022-09-03T02:09:53.413Z,25.34
2022-09-03T02:10:53.739Z,25.20
2022-09-03T02:11:53.477Z,25.26
2022-09-03T02:12:53.512Z,25.23
2022-09-03T02:13:53.543Z,25.24
2022-09-03T02:14:53.572Z,25.22
2022-09-03T02:15:53.645Z,25.20
2022-09-03T02:16:53.640Z,25.23
2022-09-03T02:17:53.978Z,25.26
2022-09-03T02:18:53.705Z,25.23
2022-09-03T02:19:53.750Z,25.24
2022-09-03T02:20:53.772Z,25.34
2022-09-03T02:21:53.808Z,25.34
2022-09-03T02:22:53.842Z,25.23
2022-09-03T02:23:53.883Z,25.39
2022-09-03T02:24:54.165Z,25.29
2022-09-03T02:25:53.956Z,25.35
2022-09-03T02:26:54.074Z,25.35
2022-09-03T02:27:54.007Z,25.38
2022-09-03T02:28:54.051Z,25.36
2022-09-03T02:29:54.073Z,25.34
2022-09-03T02:30:54.215Z,25.35
2022-09-03T02:41:14.166Z,25.34
2022-09-03T02:42:14.198Z,25.30
2022-09-03T02:43:14.237Z,25.31
2022-09-03T02:44:14.264Z,25.39
2022-09-03T02:46:14.433Z,25.38
2022-09-03T02:47:14.658Z,25.38
2022-09-03T02:48:14.397Z,25.35
2022-09-03T02:49:14.444Z,25.42
2022-09-03T02:50:14.457Z,25.39
2022-09-03T02:51:14.666Z,25.26
2022-09-03T02:52:14.532Z,25.35
2022-09-03T02:54:18.907Z,25.34
2022-09-03T02:55:14.920Z,25.35
2022-09-03T02:56:14.657Z,25.34
2022-09-03T03:07:03.078Z,25.35
2022-09-03T03:08:02.803Z,25.24
2022-09-03T03:09:02.837Z,25.39
2022-09-03T03:10:02.872Z,25.39
2022-09-03T03:11:02.899Z,25.38
2022-09-03T15:18:25.603Z,28.89
2022-09-03T15:19:25.658Z,28.89
2022-09-03T15:20:25.760Z,28.85
2022-09-03T15:21:25.774Z,28.89
2022-09-03T15:22:25.755Z,28.89
2022-09-03T15:23:25.978Z,28.91
2022-09-03T15:24:26.094Z,28.94
2022-09-03T15:25:25.843Z,28.91
2022-09-03T15:26:25.967Z,28.92
2022-09-03T15:27:25.920Z,28.83
2022-09-03T15:28:26.045Z,28.87
2022-09-03T15:29:25.996Z,28.89
2022-09-03T15:30:26.386Z,28.94
2022-09-03T15:31:26.074Z,28.94
2022-09-03T15:32:26.223Z,28.97
2022-09-03T15:34:26.726Z,29.03
2022-09-03T15:35:26.194Z,28.91
2022-09-03T15:36:26.611Z,28.94
2022-09-03T15:37:26.269Z,28.88
2022-09-03T15:39:26.542Z,28.88
2022-09-03T15:40:26.358Z,28.91
2022-09-03T15:41:26.444Z,28.88
2022-09-03T15:42:26.460Z,28.88
2022-09-03T15:43:26.869Z,28.95
2022-09-03T15:44:26.668Z,28.95
2022-09-03T15:45:26.640Z,28.98
2022-09-03T15:46:26.584Z,29.08
2022-09-03T15:47:26.644Z,29.14
2022-09-03T15:48:26.673Z,29.11
2022-09-03T15:49:26.838Z,29.03
2022-09-03T15:50:27.253Z,29.23
2022-09-03T15:51:26.787Z,29.12
2022-09-03T15:52:26.894Z,29.17
2022-09-03T15:54:26.879Z,29.17
2022-09-03T15:55:26.924Z,29.18
2022-09-03T15:56:27.809Z,29.15
2022-09-03T15:57:27.425Z,29.11
2022-09-03T15:58:27.037Z,29.17
2022-09-03T15:59:27.058Z,29.18
2022-09-03T16:00:27.074Z,29.21
2022-09-03T16:01:27.216Z,29.21
2022-09-03T16:02:27.171Z,29.08
2022-09-03T16:03:27.543Z,29.08
2022-09-03T16:04:27.555Z,29.10
2022-09-03T16:05:27.287Z,29.07
2022-09-03T16:06:27.392Z,29.10
2022-09-03T16:07:27.338Z,28.97
2022-09-03T16:08:27.377Z,29.07
2022-09-03T16:09:27.479Z,28.98
2022-09-03T16:10:27.697Z,28.98
2022-09-03T16:11:27.988Z,28.91
2022-09-03T16:12:27.519Z,28.94
2022-09-03T16:13:27.569Z,28.95
2022-09-03T16:14:27.623Z,28.89
2022-09-03T16:15:27.686Z,28.91
2022-09-03T16:16:27.766Z,28.94
2022-09-03T16:17:27.797Z,28.95
2022-09-03T16:18:28.093Z,28.98
2022-09-03T16:19:27.830Z,28.92
2022-09-03T16:21:27.842Z,28.89
2022-09-03T16:22:27.889Z,28.88
2022-09-03T16:23:28.031Z,28.89
2022-09-03T16:25:28.316Z,28.87
2022-09-03T16:26:28.033Z,28.94
2022-09-03T16:27:28.155Z,28.87
2022-09-03T16:28:28.108Z,28.85
2022-09-03T16:29:28.358Z,28.97
2022-09-03T16:30:28.367Z,28.83
2022-09-03T16:31:28.392Z,28.97
2022-09-03T16:32:28.639Z,28.97
2022-09-03T16:33:28.359Z,28.82
2022-09-03T16:34:28.459Z,28.91
2022-09-03T16:35:28.412Z,28.92
2022-09-03T16:36:28.408Z,28.91
2022-09-03T16:37:28.442Z,28.97
2022-09-03T16:38:28.477Z,28.97
2022-09-03T16:39:28.893Z,28.95
2022-09-03T16:40:28.796Z,28.85
2022-09-03T16:41:28.594Z,28.92
2022-09-03T16:42:28.684Z,28.82
2022-09-03T16:43:41.438Z,28.82
2022-09-03T16:44:28.682Z,28.92
2022-09-03T16:45:28.781Z,29.02
2022-09-03T16:46:29.069Z,29.03
2022-09-03T16:47:28.809Z,28.95
2022-09-03T16:48:28.838Z,29.05
2022-09-03T16:49:28.865Z,29.03
2022-09-03T16:50:28.911Z,28.98
2022-09-03T16:51:28.942Z,29.08
2022-09-03T16:52:38.082Z,29.08
2022-09-03T16:53:29.024Z,29.15
2022-09-03T16:54:29.055Z,29.08
2022-09-03T16:55:29.323Z,29.21
2022-09-03T16:56:29.177Z,29.18
2022-09-03T16:57:29.308Z,29.15
2022-09-03T16:58:29.239Z,29.15
2022-09-03T16:59:29.341Z,29.14
2022-09-03T17:00:29.338Z,29.17
2022-09-03T17:01:29.530Z,29.14
2022-09-03T17:02:41.167Z,29.20
2022-09-03T17:03:29.836Z,29.23
2022-09-03T17:04:29.829Z,29.30
2022-09-03T17:05:29.785Z,29.29
2022-09-03T17:06:29.512Z,29.33
2022-09-03T17:07:29.578Z,29.32
2022-09-03T17:08:29.581Z,29.27
2022-09-03T17:09:29.652Z,29.30
2022-09-03T17:10:29.771Z,29.36
2022-09-03T17:11:29.988Z,29.42
2022-09-03T17:12:29.732Z,29.30
2022-09-03T17:13:29.794Z,29.45
2022-09-03T17:14:29.814Z,29.44
2022-09-03T17:15:29.932Z,29.41
2022-09-03T17:16:29.985Z,29.44
2022-09-03T17:17:29.931Z,29.47
2022-09-03T17:18:30.292Z,29.45
2022-09-03T17:19:30.156Z,29.48
2022-09-03T17:20:30.110Z,29.48
2022-09-03T17:21:30.173Z,29.45
2022-09-03T17:22:30.095Z,29.49
2022-09-03T17:23:30.157Z,29.45
2022-09-03T17:24:31.914Z,29.49
2022-09-03T17:25:30.553Z,29.45
2022-09-03T17:26:30.501Z,29.49
2022-09-03T17:27:30.491Z,29.48
2022-09-03T17:28:30.437Z,29.47
2022-09-03T17:29:30.366Z,29.48
2022-09-03T17:30:30.475Z,29.44
2022-09-03T17:31:30.649Z,29.48
2022-09-03T17:32:30.781Z,29.42
2022-09-03T17:33:30.500Z,29.47
2022-09-03T17:34:30.550Z,29.41
2022-09-03T17:35:33.808Z,29.35
2022-09-03T17:36:30.665Z,29.32
2022-09-03T17:37:30.683Z,29.41
2022-09-03T17:38:30.764Z,29.29
2022-09-03T17:39:30.771Z,29.33
2022-09-03T17:40:30.753Z,29.35
2022-09-03T17:41:34.139Z,29.33
2022-09-03T17:42:30.889Z,29.35
2022-09-03T17:43:30.896Z,29.29
2022-09-03T17:44:30.938Z,29.18
2022-09-03T17:45:31.252Z,29.27
2022-09-03T17:46:31.094Z,29.20
2022-09-03T17:47:31.204Z,29.20
2022-09-03T17:48:31.073Z,29.15
2022-09-03T17:49:31.106Z,29.18
2022-09-03T17:50:31.183Z,29.15
2022-09-03T17:51:31.173Z,29.23
2022-09-03T17:52:31.554Z,29.15
2022-09-03T17:53:31.313Z,29.15
2022-09-03T17:54:31.364Z,29.08
2022-09-03T17:55:31.350Z,29.10
2022-09-03T17:56:31.344Z,29.12
2022-09-03T17:57:31.437Z,29.10
2022-09-03T17:58:31.405Z,28.98
2022-09-03T17:59:31.831Z,28.98
2022-09-03T18:00:31.493Z,28.95
2022-09-03T18:01:31.673Z,28.91
2022-09-03T18:02:31.608Z,28.91
2022-09-03T18:07:32.085Z,28.97
2022-09-03T18:08:31.801Z,28.88
2022-09-03T18:09:35.807Z,28.88
2022-09-03T18:10:31.842Z,28.82
2022-09-03T18:11:34.049Z,28.85
2022-09-03T18:12:31.911Z,28.77
2022-09-03T18:13:32.102Z,28.74
2022-09-03T18:14:32.277Z,28.83
2022-09-03T18:15:31.998Z,28.79
2022-09-03T18:16:32.305Z,28.83
2022-09-03T18:18:32.657Z,28.74
2022-09-03T18:19:32.223Z,28.70
2022-09-03T18:20:32.180Z,28.64
2022-09-03T18:21:32.532Z,28.64
2022-09-03T18:22:32.394Z,28.61
2022-09-03T18:23:32.332Z,28.55
2022-09-03T18:24:32.334Z,28.62
2022-09-03T18:25:32.525Z,28.55
2022-09-03T18:26:32.454Z,28.58
2022-09-03T18:27:32.528Z,28.51
2022-09-03T18:28:32.466Z,28.51
2022-09-03T18:29:32.962Z,28.50
2022-09-03T18:30:32.513Z,28.52
2022-09-03T18:31:32.600Z,28.40
2022-09-03T18:32:32.783Z,28.43
2022-09-03T18:33:32.613Z,28.38
2022-09-03T18:34:32.994Z,28.33
2022-09-03T18:35:32.729Z,28.30
2022-09-03T18:36:32.729Z,28.42
2022-09-03T18:37:32.754Z,28.40
2022-09-03T18:38:32.777Z,28.27
2022-09-03T18:39:32.915Z,28.28
2022-09-03T18:40:33.143Z,28.28
2022-09-03T18:42:33.064Z,28.24
2022-09-03T18:43:32.949Z,28.30
2022-09-03T18:44:33.011Z,28.21
2022-09-03T18:48:06.058Z,28.21
2022-09-03T18:49:33.216Z,28.08
2022-09-03T18:50:33.180Z,28.11
2022-09-03T18:51:33.249Z,28.09
2022-09-03T18:52:33.523Z,28.05
2022-09-03T18:53:33.757Z,28.06
2022-09-03T18:54:50.567Z,28.06
2022-09-03T18:55:33.342Z,27.99
2022-09-03T18:56:33.394Z,28.01
2022-09-03T18:57:33.414Z,27.99
2022-09-03T18:58:33.443Z,27.95
2022-09-03T18:59:33.567Z,28.01
2022-09-03T19:00:33.813Z,27.95
2022-09-03T19:01:33.622Z,27.93
2022-09-03T19:02:33.689Z,27.87
2022-09-03T19:03:33.610Z,27.91
2022-09-03T19:04:33.640Z,27.87
2022-09-03T19:05:33.673Z,27.87
2022-09-03T19:06:34.844Z,27.91
2022-09-03T19:07:33.996Z,27.83
2022-09-03T19:08:33.774Z,27.86
2022-09-03T19:09:33.807Z,27.88
2022-09-03T19:10:33.840Z,27.77
2022-09-03T19:11:33.884Z,27.74
2022-09-03T19:12:33.913Z,27.74
2022-09-03T19:13:33.946Z,27.74
2022-09-03T19:14:34.273Z,27.71
2022-09-03T19:15:34.056Z,27.76
2022-09-03T19:16:34.371Z,27.69
2022-09-03T19:17:34.184Z,27.71
2022-09-03T19:18:34.135Z,27.68
2022-09-03T19:19:34.135Z,27.62
2022-09-03T19:20:34.178Z,27.68
2022-09-03T19:21:34.505Z,27.66
2022-09-03T19:22:34.240Z,27.65
2022-09-03T19:23:34.274Z,27.59
2022-09-03T19:30:34.804Z,27.48
2022-09-03T19:31:34.576Z,27.52
2022-09-03T19:32:34.573Z,27.49
2022-09-03T19:33:34.596Z,27.43
2022-09-03T19:34:34.630Z,27.49
2022-09-03T19:35:34.661Z,27.45
2022-09-03T19:36:34.709Z,27.46
2022-09-03T19:37:35.041Z,27.48
2022-09-03T19:38:34.808Z,27.45
2022-09-03T19:39:34.820Z,27.40
2022-09-03T19:40:34.827Z,27.53
2022-09-03T19:41:34.876Z,27.40
2022-09-03T19:42:34.893Z,27.45
2022-09-03T19:43:37.081Z,27.43
2022-09-03T19:44:35.260Z,27.46
2022-09-03T19:45:34.997Z,27.42
2022-09-03T19:46:35.054Z,27.49
2022-09-03T19:47:35.072Z,27.35
2022-09-03T19:48:35.106Z,27.39
2022-09-03T19:49:35.392Z,27.40
2022-09-03T19:50:35.177Z,27.34
2022-09-03T19:51:35.499Z,27.33
2022-09-03T19:52:35.228Z,27.27
2022-09-03T19:53:35.269Z,27.34
2022-09-03T19:54:35.286Z,27.30
2022-09-03T19:55:35.759Z,27.34
2022-09-03T19:57:35.485Z,27.30
2022-09-03T19:58:43.306Z,27.25
2022-09-03T19:59:35.508Z,27.16
2022-09-03T20:00:35.594Z,27.21
2022-09-03T20:01:35.560Z,27.21
2022-09-03T20:02:35.679Z,27.20
2022-09-03T20:03:35.733Z,27.20
2022-09-03T20:04:35.625Z,27.15
2022-09-03T20:05:35.899Z,27.18
2022-09-03T20:06:35.701Z,27.21
2022-09-03T20:07:35.719Z,27.23
2022-09-03T20:10:35.809Z,27.21
2022-09-03T20:11:36.072Z,27.18
2022-09-03T20:12:36.658Z,27.16
2022-09-03T20:13:36.095Z,27.18
2022-09-03T20:14:36.260Z,27.21
2022-09-03T20:15:36.251Z,27.18
2022-09-03T20:16:36.101Z,27.18
2022-09-03T20:17:36.136Z,27.16
2022-09-03T20:18:36.177Z,27.20
2022-09-03T20:19:36.579Z,27.08
2022-09-03T20:20:36.157Z,27.08
2022-09-03T20:21:36.167Z,27.05
2022-09-03T20:22:36.197Z,27.05
2022-09-03T20:23:36.228Z,27.13
2022-09-03T20:24:36.268Z,27.09
2022-09-03T20:25:36.301Z,27.08
2022-09-03T20:26:36.630Z,27.03
2022-09-03T20:27:36.358Z,27.02
2022-09-03T20:28:36.400Z,27.09
2022-09-03T20:29:36.429Z,27.08
2022-09-03T20:30:36.457Z,27.13
2022-09-03T20:31:40.110Z,27.06
2022-09-03T20:32:36.521Z,27.08
2022-09-03T20:33:36.804Z,27.05
2022-09-03T20:34:36.586Z,27.09
2022-09-03T20:37:36.681Z,27.06
2022-09-03T20:38:36.820Z,26.98
2022-09-03T20:39:36.804Z,27.02
2022-09-03T20:40:37.085Z,27.06
2022-09-03T20:41:36.814Z,27.03
2022-09-03T20:42:36.850Z,27.06
2022-09-03T20:43:36.880Z,26.97
2022-09-03T20:44:36.922Z,26.98
2022-09-03T20:45:40.101Z,26.98
2022-09-03T20:47:37.254Z,26.96
2022-09-03T20:48:37.040Z,26.98
2022-09-03T20:49:37.074Z,26.97
2022-09-03T20:50:37.103Z,26.98
2022-09-03T20:51:37.143Z,26.98
2022-09-03T20:52:37.164Z,27.01
2022-09-03T20:53:37.258Z,27.03
2022-09-03T20:54:37.525Z,26.96
2022-09-03T20:55:37.271Z,27.02
2022-09-03T20:56:37.293Z,26.91
2022-09-03T20:57:37.325Z,26.97
2022-09-03T20:58:37.363Z,26.98
2022-09-03T20:59:37.389Z,27.01
2022-09-03T21:00:38.092Z,26.93
2022-09-03T21:01:37.887Z,26.93
2022-09-03T21:02:37.580Z,26.96
2022-09-03T21:03:37.525Z,26.94
2022-09-03T21:04:37.561Z,26.98
2022-09-03T21:05:37.592Z,26.94
2022-09-03T21:06:37.611Z,26.90
2022-09-03T21:07:40.120Z,26.88
2022-09-03T21:08:37.980Z,26.93
2022-09-03T21:09:37.713Z,26.93
2022-09-03T21:10:37.751Z,26.87
2022-09-03T21:11:37.775Z,26.90
2022-09-03T21:12:37.810Z,26.94
2022-09-03T21:13:38.513Z,26.84
2022-09-03T21:14:37.875Z,26.81
2022-09-03T21:15:38.016Z,26.90
2022-09-03T21:16:37.935Z,26.88
2022-09-03T21:17:37.969Z,26.93
2022-09-03T21:18:38.002Z,26.90
2022-09-03T21:19:38.029Z,26.94
2022-09-03T21:20:38.313Z,26.87
2022-09-03T21:21:38.298Z,26.87
2022-09-03T21:22:38.156Z,26.87
2022-09-03T21:23:38.196Z,26.86
2022-09-03T21:24:38.206Z,26.75
2022-09-03T21:25:38.224Z,26.83
2022-09-03T21:26:38.557Z,26.81
2022-09-03T21:27:38.299Z,26.79
2022-09-03T21:28:38.318Z,26.81
2022-09-03T21:29:38.347Z,26.86
2022-09-03T21:30:38.423Z,26.83
2022-09-03T21:31:38.949Z,26.87
2022-09-03T21:32:38.448Z,26.75
2022-09-03T21:33:38.778Z,26.76
2022-09-03T21:34:38.507Z,26.79
2022-09-03T21:35:38.542Z,26.73
2022-09-03T21:36:38.571Z,26.68
2022-09-03T21:37:38.615Z,26.83
2022-09-03T21:38:38.637Z,26.78
2022-09-03T21:39:38.742Z,26.83
2022-09-03T21:40:38.998Z,26.75
2022-09-03T21:41:38.748Z,26.68
2022-09-03T21:42:38.768Z,26.73
2022-09-03T21:43:38.815Z,26.73
2022-09-03T21:44:38.831Z,26.68
2022-09-03T21:45:39.061Z,26.71
2022-09-03T21:46:38.940Z,26.69
2022-09-03T21:47:39.225Z,26.73
2022-09-03T21:48:38.961Z,26.68
2022-09-03T21:49:38.992Z,26.72
2022-09-03T21:50:39.022Z,26.71
2022-09-03T21:51:39.054Z,26.61
2022-09-03T21:52:39.080Z,26.59
2022-09-03T21:53:39.127Z,26.68
2022-09-03T21:54:39.446Z,26.65
2022-09-03T21:55:39.187Z,26.66
2022-09-03T21:56:39.206Z,26.59
2022-09-03T21:57:39.261Z,26.64
2022-09-03T21:58:39.272Z,26.60
2022-09-03T21:59:39.469Z,26.60
2022-09-03T22:00:39.344Z,26.54
2022-09-03T22:01:39.708Z,26.61
2022-09-03T22:02:39.515Z,26.60
2022-09-03T22:03:39.435Z,26.57
2022-09-03T22:04:39.464Z,26.64
2022-09-03T22:05:39.508Z,26.54
2022-09-03T22:06:39.523Z,26.64
2022-09-03T22:08:39.892Z,26.60
2022-09-03T22:09:39.621Z,26.54
2022-09-03T22:10:39.654Z,26.54
2022-09-03T22:11:39.688Z,26.46
2022-09-03T22:12:39.830Z,26.42
2022-09-03T22:13:39.770Z,26.42
2022-09-03T22:14:39.782Z,26.34
2022-09-03T22:16:40.222Z,26.32
2022-09-03T22:17:39.880Z,26.32
2022-09-03T22:18:39.900Z,26.38
2022-09-03T22:19:39.940Z,26.38
2022-09-03T22:20:40.013Z,26.32
2022-09-03T22:21:40.002Z,26.36
2022-09-03T22:22:40.042Z,26.34
2022-09-03T22:23:40.370Z,26.39
2022-09-03T22:24:40.107Z,26.34
2022-09-03T22:25:40.137Z,26.32
2022-09-03T22:26:40.505Z,26.31
2022-09-03T22:27:40.188Z,26.31
2022-09-03T22:28:40.222Z,26.34
2022-09-03T22:29:40.252Z,26.29
2022-09-03T22:30:40.660Z,26.34
2022-09-03T22:31:40.320Z,26.29
2022-09-03T22:32:40.351Z,26.31
2022-09-03T22:33:40.385Z,26.29
2022-09-03T22:34:40.406Z,26.27
2022-09-03T22:35:40.449Z,26.29
2022-09-03T22:36:40.472Z,26.24
2022-09-03T22:37:40.807Z,26.31
2022-09-03T22:38:40.538Z,26.24
2022-09-03T22:39:40.596Z,26.21
2022-09-03T22:40:40.598Z,26.35
2022-09-03T22:41:40.637Z,26.21
2022-09-03T22:42:40.662Z,26.29
2022-09-03T22:43:40.696Z,26.23
2022-09-03T22:44:40.984Z,26.27
2022-09-03T22:45:40.827Z,26.20
2022-09-03T22:46:40.787Z,26.24
2022-09-03T22:47:40.832Z,26.24
2022-09-03T22:48:40.848Z,26.23
2022-09-03T22:49:40.885Z,26.23
2022-09-03T22:50:40.914Z,26.21
2022-09-03T22:51:41.201Z,26.24
2022-09-03T22:52:40.979Z,26.21
2022-09-03T22:53:41.012Z,26.19
2022-09-03T22:54:41.039Z,26.16
2022-09-03T22:55:41.099Z,26.21
2022-09-03T22:56:41.103Z,26.23
2022-09-03T22:57:41.140Z,26.21
2022-09-03T22:58:41.482Z,26.23
2022-09-03T22:59:41.195Z,26.09
2022-09-03T23:00:41.225Z,26.21
2022-09-03T23:01:41.347Z,26.21
2022-09-03T23:02:41.288Z,26.13
2022-09-03T23:03:41.373Z,26.17
2022-09-03T23:04:41.358Z,26.19
2022-09-03T23:05:41.638Z,26.20
2022-09-03T23:07:41.468Z,26.21
2022-09-03T23:08:41.479Z,26.19
2022-09-03T23:09:41.519Z,26.21
2022-09-03T23:10:41.544Z,26.23
2022-09-03T23:11:41.568Z,26.24
2022-09-03T23:12:41.903Z,26.23
2022-09-03T23:13:41.635Z,26.19
2022-09-03T23:14:41.668Z,26.20
2022-09-03T23:15:41.697Z,26.20
2022-09-03T23:16:41.787Z,26.23
2022-09-03T23:17:41.769Z,26.19
2022-09-03T23:18:41.790Z,26.20
2022-09-03T23:19:42.074Z,26.21
2022-09-03T23:20:41.856Z,26.24
2022-09-03T23:21:41.885Z,26.20
2022-09-03T23:22:41.924Z,26.17
2022-09-03T23:23:41.948Z,26.08
2022-09-03T23:24:41.980Z,26.17
2022-09-03T23:25:42.017Z,26.23
2022-09-03T23:27:42.323Z,26.21
2022-09-03T23:28:42.105Z,26.20
2022-09-03T23:29:42.160Z,26.20
2022-09-03T23:30:42.168Z,26.20
2022-09-03T23:31:42.285Z,26.19
2022-09-03T23:33:42.259Z,26.23
2022-09-03T23:34:42.593Z,26.20
2022-09-03T23:35:42.323Z,26.17
2022-09-03T23:37:42.390Z,26.20
2022-09-03T23:38:42.419Z,26.17
2022-09-03T23:39:42.501Z,26.21
2022-09-03T23:40:42.483Z,26.19
2022-09-03T23:41:42.762Z,26.16
2022-09-03T23:42:42.545Z,26.23
2022-09-03T23:43:42.585Z,26.17
2022-09-03T23:44:42.610Z,26.21
2022-09-03T23:45:42.811Z,26.08
2022-09-03T23:46:42.682Z,26.16
2022-09-03T23:47:45.753Z,26.17
2022-09-03T23:49:43.067Z,26.17
2022-09-03T23:50:42.791Z,26.16
2022-09-03T23:51:42.823Z,26.09
2022-09-03T23:52:42.859Z,26.21
2022-09-03T23:53:42.893Z,26.20
2022-09-03T23:54:42.932Z,26.16
2022-09-03T23:55:42.958Z,26.20
2022-09-03T23:56:43.385Z,26.23
2022-09-03T23:57:43.116Z,26.28
2022-09-03T23:58:43.345Z,26.13
2022-09-03T23:59:43.085Z,26.19
